createdAt,value
2018-05-25T04:01:58.542Z,20.90
2018-05-25T04:04:24.316Z,17.67
2018-05-25T04:06:50.066Z,22.50
2018-05-25T04:09:15.842Z,18.47
2018-05-25T04:11:41.596Z,16.70
2018-05-25T04:14:07.361Z,18.17
2018-05-25T04:16:33.903Z,17.43
2018-05-25T04:18:59.669Z,21.00
2018-05-25T04:21:25.421Z,18.13
2018-05-25T04:23:51.169Z,19.43
2018-05-25T04:26:17.089Z,17.23
2018-05-25T04:28:42.845Z,16.90
2018-05-25T04:31:09.748Z,18.87
2018-05-25T04:33:35.513Z,19.40
2018-05-25T04:36:01.281Z,21.40
2018-05-25T04:38:27.041Z,19.20
2018-05-25T04:40:52.811Z,18.60
2018-05-25T04:43:18.601Z,20.27
2018-05-25T04:45:44.344Z,20.87
2018-05-25T04:48:10.097Z,20.70
2018-05-25T04:50:35.853Z,18.27
2018-05-25T04:53:01.601Z,18.57
2018-05-25T04:55:27.361Z,19.07
2018-05-25T04:57:53.109Z,24.50
2018-05-25T05:00:18.881Z,20.53
2018-05-25T05:02:44.638Z,22.23
2018-05-25T05:05:10.397Z,20.43
2018-05-25T05:07:36.151Z,20.53
2018-05-25T05:10:01.924Z,19.43
2018-05-25T05:12:27.677Z,19.57
2018-05-25T05:14:53.435Z,18.40
2018-05-25T05:17:19.189Z,18.03
2018-05-25T05:19:44.946Z,17.80
2018-05-25T05:22:10.709Z,17.93
2018-05-25T05:24:36.453Z,19.73
2018-05-25T05:27:02.233Z,19.23
2018-05-25T05:29:27.989Z,16.53
2018-05-25T05:31:53.765Z,17.30
2018-05-25T05:34:19.525Z,17.57
2018-05-25T05:36:45.292Z,17.47
2018-05-25T05:39:11.129Z,16.13
2018-05-25T05:41:36.881Z,16.77
2018-05-25T05:44:02.649Z,16.67
2018-05-25T05:46:28.475Z,18.00
2018-05-25T05:48:54.229Z,13.77
2018-05-25T05:51:19.997Z,13.77
2018-05-25T05:53:45.761Z,12.73
2018-05-25T05:56:11.517Z,11.63
2018-05-25T05:58:37.273Z,17.40
2018-05-25T06:01:03.046Z,11.70
2018-05-25T06:03:28.833Z,16.30
2018-05-25T06:05:54.581Z,11.90
2018-05-25T06:08:20.336Z,12.23
2018-05-25T06:10:46.093Z,11.73
2018-05-25T06:13:11.869Z,11.27
2018-05-25T06:15:37.618Z,11.53
2018-05-25T06:18:03.382Z,12.40
2018-05-25T06:20:29.141Z,11.60
2018-05-25T06:22:54.921Z,13.03
2018-05-25T06:25:20.674Z,11.47
2018-05-25T06:27:46.425Z,11.67
2018-05-25T06:30:12.182Z,11.83
2018-05-25T06:32:37.945Z,13.17
2018-05-25T06:35:03.782Z,12.53
2018-05-25T06:37:29.557Z,12.87
2018-05-25T06:39:55.295Z,13.43
2018-05-25T06:42:21.050Z,14.40
2018-05-25T06:44:46.820Z,13.70
2018-05-25T06:47:12.574Z,13.30
2018-05-25T06:49:38.345Z,14.33
2018-05-25T06:52:04.088Z,14.67
2018-05-25T06:54:29.869Z,15.77
2018-05-25T06:56:55.625Z,14.27
2018-05-25T06:59:21.409Z,15.17
2018-05-25T07:01:47.161Z,14.70
2018-05-25T07:04:12.921Z,16.03
2018-05-25T07:06:38.677Z,15.20
2018-05-25T07:09:05.332Z,15.43
2018-05-25T07:11:31.093Z,15.33
2018-05-25T07:13:56.852Z,16.00
2018-05-25T07:16:22.598Z,14.23
2018-05-25T07:18:48.349Z,17.17
2018-05-25T07:21:14.105Z,16.30
2018-05-25T07:23:39.864Z,16.43
2018-05-25T07:26:05.609Z,15.03
2018-05-25T07:28:31.377Z,16.60
2018-05-25T07:30:57.137Z,15.80
2018-05-25T07:33:22.957Z,16.67
2018-05-25T07:35:48.693Z,16.40
2018-05-25T07:38:14.464Z,17.63
2018-05-25T07:40:40.242Z,20.43
2018-05-25T07:43:05.992Z,15.40
2018-05-25T07:45:31.774Z,17.30
2018-05-25T07:47:57.526Z,16.67
2018-05-25T07:50:23.313Z,14.20
2018-05-25T07:52:49.082Z,15.03
2018-05-25T07:55:14.858Z,16.57
2018-05-25T07:57:40.609Z,15.07
2018-05-25T08:00:06.378Z,15.50
2018-05-25T08:02:32.120Z,15.23
2018-05-25T08:04:57.877Z,14.10
2018-05-25T08:07:23.633Z,14.73
2018-05-25T08:09:49.394Z,16.20
2018-05-25T08:12:15.178Z,15.63
2018-05-25T08:14:40.929Z,15.57
2018-05-25T08:17:06.702Z,16.10
2018-05-25T08:19:32.501Z,14.13
2018-05-25T08:21:58.315Z,14.30
2018-05-25T08:24:24.031Z,14.40
2018-05-25T08:26:49.803Z,13.90
2018-05-25T08:29:15.554Z,13.20
2018-05-25T08:31:41.314Z,13.63
2018-05-25T08:34:07.069Z,13.90
2018-05-25T08:36:32.842Z,11.93
2018-05-25T08:38:58.601Z,12.43
2018-05-25T08:41:24.373Z,13.37
2018-05-25T08:43:50.125Z,13.93
2018-05-25T08:46:15.889Z,12.97
2018-05-25T08:48:41.641Z,11.97
2018-05-25T08:51:07.394Z,12.43
2018-05-25T08:53:33.156Z,12.47
2018-05-25T08:55:58.913Z,13.33
2018-05-25T08:58:24.674Z,12.60
2018-05-25T09:00:50.438Z,11.87
2018-05-25T09:03:16.193Z,10.60
2018-05-25T09:05:41.958Z,11.80
2018-05-25T09:08:07.725Z,11.67
2018-05-25T09:10:33.483Z,11.63
2018-05-25T09:12:59.252Z,9.87
2018-05-25T09:15:25.008Z,10.30
2018-05-25T09:17:50.774Z,10.57
2018-05-25T09:20:16.534Z,10.63
2018-05-25T09:22:42.350Z,11.77
2018-05-25T09:25:08.098Z,9.87
2018-05-25T09:27:33.862Z,10.50
2018-05-25T09:29:59.623Z,11.13
2018-05-25T09:32:25.405Z,11.80
2018-05-25T09:34:51.169Z,10.80
2018-05-25T09:37:16.941Z,9.50
2018-05-25T09:39:42.697Z,11.53
2018-05-25T09:42:08.477Z,10.30
2018-05-25T09:44:34.237Z,10.77
2018-05-25T09:47:00.002Z,10.77
2018-05-25T09:49:25.768Z,10.63
2018-05-25T09:51:51.527Z,9.67
2018-05-25T09:54:17.290Z,9.10
2018-05-25T10:10:03.345Z,9.13
2018-05-25T10:12:29.100Z,9.27
2018-05-25T10:14:54.866Z,8.73
2018-05-25T10:17:20.616Z,9.47
2018-05-25T10:19:46.385Z,9.50
2018-05-25T10:22:12.156Z,8.57
2018-05-25T10:24:37.918Z,8.23
2018-05-25T10:27:03.679Z,9.10
2018-05-25T10:29:29.445Z,9.20
2018-05-25T10:31:55.192Z,8.53
2018-05-25T10:34:20.949Z,8.30
2018-05-25T10:36:46.700Z,8.60
2018-05-25T10:39:12.477Z,8.73
2018-05-25T10:41:38.251Z,8.00
2018-05-25T10:44:08.546Z,9.10
2018-05-25T10:46:34.316Z,8.43
2018-05-25T10:49:00.072Z,8.80
2018-05-25T10:51:28.531Z,8.77
2018-05-25T10:53:54.291Z,8.20
2018-05-25T10:56:20.071Z,8.30
2018-05-25T10:58:45.822Z,8.33
2018-05-25T11:01:12.526Z,14.83
2018-05-25T11:03:38.350Z,8.20
2018-05-25T11:06:04.120Z,8.07
2018-05-25T11:08:29.900Z,7.47
2018-05-25T11:10:55.669Z,8.07
2018-05-25T11:13:21.433Z,7.07
2018-05-25T11:15:47.208Z,8.40
2018-05-25T11:18:15.930Z,7.67
2018-05-25T11:20:41.702Z,8.80
2018-05-25T11:23:07.493Z,8.07
2018-05-25T11:25:33.282Z,6.40
2018-05-25T11:27:59.793Z,6.47
2018-05-25T11:30:25.569Z,7.00
2018-05-25T11:32:53.601Z,6.30
2018-05-25T11:35:20.356Z,5.50
2018-05-25T11:37:46.113Z,5.87
2018-05-25T11:40:11.875Z,5.50
2018-05-25T11:42:39.958Z,5.30
2018-05-25T11:45:05.742Z,5.20
2018-05-25T11:47:31.505Z,4.60
2018-05-25T11:49:57.262Z,4.70
2018-05-25T11:52:23.041Z,4.60
2018-05-25T11:54:48.834Z,4.60
2018-05-25T11:57:14.589Z,5.40
2018-05-25T11:59:41.037Z,5.50
2018-05-25T12:02:06.799Z,5.53
2018-05-25T12:04:32.592Z,5.33
2018-05-25T12:06:58.349Z,4.33
2018-05-25T12:09:24.113Z,4.10
2018-05-25T12:11:49.864Z,4.20
2018-05-25T12:14:15.657Z,3.90
2018-05-25T12:16:41.429Z,4.30
2018-05-25T12:19:07.205Z,3.87
2018-05-25T12:21:32.981Z,3.67
2018-05-25T12:23:58.729Z,3.87
2018-05-25T12:26:24.504Z,4.00
2018-05-25T12:28:50.270Z,4.23
2018-05-25T12:31:16.058Z,3.77
2018-05-25T12:33:41.828Z,3.90
2018-05-25T12:36:07.587Z,3.80
2018-05-25T12:38:33.350Z,4.73
2018-05-25T12:40:59.145Z,4.03
2018-05-25T12:43:24.917Z,4.30
2018-05-25T12:45:50.682Z,4.60
2018-05-25T12:48:16.441Z,4.60
2018-05-25T12:50:42.213Z,4.20
2018-05-25T12:53:07.977Z,3.80
2018-05-25T12:55:33.760Z,4.70
2018-05-25T12:57:59.545Z,5.20
2018-05-25T13:00:25.327Z,4.67
2018-05-25T13:02:51.762Z,4.77
2018-05-25T13:05:17.533Z,5.57
2018-05-25T13:07:43.297Z,5.17
2018-05-25T13:10:09.069Z,5.00
2018-05-25T13:12:34.838Z,5.70
2018-05-25T13:15:00.601Z,4.80
2018-05-25T13:17:26.364Z,4.47
2018-05-25T13:19:52.146Z,4.73
2018-05-25T13:22:17.981Z,5.93
2018-05-25T13:24:43.729Z,4.97
2018-05-25T13:27:09.489Z,5.70
2018-05-25T13:29:35.261Z,5.40
2018-05-25T13:32:01.030Z,5.20
2018-05-25T13:34:26.801Z,5.13
2018-05-25T13:36:52.565Z,5.20
2018-05-25T13:39:18.325Z,5.83
2018-05-25T13:41:44.113Z,3.77
2018-05-25T13:44:09.889Z,4.40
2018-05-25T13:46:36.649Z,4.40
2018-05-25T13:49:02.416Z,4.30
2018-05-25T13:51:28.176Z,4.27
2018-05-25T13:53:53.929Z,4.53
2018-05-25T13:56:19.698Z,4.93
2018-05-25T13:58:45.466Z,4.37
2018-05-25T14:01:11.238Z,4.70
2018-05-25T14:03:36.992Z,4.80
2018-05-25T14:06:02.812Z,6.13
2018-05-25T14:08:28.554Z,4.83
2018-05-25T14:10:54.318Z,4.50
2018-05-25T14:13:20.081Z,4.57
2018-05-25T14:15:45.846Z,4.73
2018-05-25T14:18:11.601Z,5.07
2018-05-25T14:20:37.370Z,4.27
2018-05-25T14:23:03.128Z,4.90
2018-05-25T14:25:28.885Z,4.73
2018-05-25T14:27:54.642Z,4.97
2018-05-25T14:30:20.412Z,5.10
2018-05-25T14:32:46.190Z,5.00
2018-05-25T14:35:11.954Z,5.40
2018-05-25T14:37:37.717Z,5.53
2018-05-25T14:40:03.473Z,4.73
2018-05-25T14:42:29.233Z,5.40
2018-05-25T14:44:54.987Z,4.57
2018-05-25T14:47:20.813Z,5.20
2018-05-25T14:49:46.581Z,4.70
2018-05-25T14:52:12.342Z,4.73
2018-05-25T14:54:38.125Z,4.57
2018-05-25T14:57:03.878Z,4.10
2018-05-25T14:59:29.653Z,4.23
2018-05-25T15:01:55.413Z,4.20
2018-05-25T15:04:21.172Z,4.60
2018-05-25T15:06:46.929Z,4.20
2018-05-25T15:09:12.693Z,4.17
2018-05-25T15:11:38.442Z,5.13
2018-05-25T15:14:04.238Z,4.20
2018-05-25T15:16:30.003Z,4.33
2018-05-25T15:18:55.770Z,3.47
2018-05-25T15:21:21.522Z,3.83
2018-05-25T15:23:47.265Z,3.60
2018-05-25T15:26:13.062Z,4.17
2018-05-25T15:28:38.814Z,4.17
2018-05-25T15:31:04.786Z,5.63
2018-05-25T15:33:30.337Z,3.93
2018-05-25T15:35:56.098Z,4.57
2018-05-25T15:38:21.861Z,4.60
2018-05-25T15:40:47.714Z,4.93
2018-05-25T15:43:13.586Z,4.40
2018-05-25T15:45:39.350Z,4.47
2018-05-25T15:48:05.101Z,4.93
2018-05-25T15:50:30.888Z,4.37
2018-05-25T15:52:56.644Z,5.20
2018-05-25T15:55:22.420Z,4.60
2018-05-25T15:57:48.173Z,4.50
2018-05-25T16:00:13.938Z,5.37
2018-05-25T16:02:39.701Z,4.57
2018-05-25T16:05:05.481Z,5.30
2018-05-25T16:07:31.253Z,5.30
2018-05-25T16:09:57.018Z,5.93
2018-05-25T16:12:22.826Z,5.80
2018-05-25T16:14:48.655Z,5.60
2018-05-25T16:17:14.464Z,4.83
2018-05-25T16:19:40.285Z,6.80
2018-05-25T16:22:06.066Z,7.37
2018-05-25T16:24:31.830Z,5.43
2018-05-25T16:26:57.613Z,5.60
2018-05-25T16:29:23.369Z,6.00
2018-05-25T16:31:49.126Z,6.07
2018-05-25T16:34:14.920Z,5.80
2018-05-25T16:36:40.669Z,5.43
2018-05-25T16:39:06.421Z,5.67
2018-05-25T16:41:32.174Z,5.93
2018-05-25T16:43:57.938Z,7.47
2018-05-25T16:46:23.697Z,6.43
2018-05-25T16:48:49.457Z,6.20
2018-05-25T16:51:15.225Z,7.17
2018-05-25T16:53:40.982Z,6.23
2018-05-25T16:56:06.761Z,6.83
2018-05-25T16:58:32.548Z,6.50
2018-05-25T17:00:58.297Z,6.23
2018-05-25T17:03:24.061Z,6.47
2018-05-25T17:05:49.835Z,6.47
2018-05-25T17:08:15.602Z,6.73
2018-05-25T17:10:41.361Z,6.23
2018-05-25T17:13:07.124Z,6.83
2018-05-25T17:15:32.886Z,5.87
2018-05-25T17:17:58.649Z,5.97
2018-05-25T17:20:24.393Z,8.17
2018-05-25T17:22:50.170Z,6.77
2018-05-25T17:25:15.965Z,6.50
2018-05-25T17:27:41.736Z,6.47
2018-05-25T17:30:07.489Z,6.53
2018-05-25T17:32:33.265Z,6.37
2018-05-25T17:34:59.114Z,7.30
2018-05-25T17:37:24.891Z,6.77
2018-05-25T17:39:50.656Z,6.40
2018-05-25T17:42:16.421Z,7.07
2018-05-25T17:44:42.176Z,6.90
2018-05-25T17:47:07.934Z,6.97
2018-05-25T17:49:33.705Z,7.17
2018-05-25T17:51:59.464Z,6.80
2018-05-25T17:54:25.419Z,6.90
2018-05-25T17:56:51.271Z,6.57
2018-05-25T17:59:17.013Z,6.47
2018-05-25T18:01:42.779Z,7.00
2018-05-25T18:04:08.543Z,6.43
2018-05-25T18:06:34.291Z,6.67
2018-05-25T18:09:00.057Z,7.27
2018-05-25T18:11:25.829Z,6.27
2018-05-25T18:13:51.606Z,7.27
2018-05-25T18:16:17.370Z,6.97
2018-05-25T18:18:43.164Z,6.63
2018-05-25T18:21:08.974Z,7.60
2018-05-25T18:23:34.729Z,6.30
2018-05-25T18:26:00.505Z,7.63
2018-05-25T18:28:26.265Z,7.20
2018-05-25T18:30:52.041Z,6.77
2018-05-25T18:33:17.790Z,6.87
2018-05-25T18:35:43.565Z,7.20
2018-05-25T18:38:09.313Z,7.90
2018-05-25T18:40:35.079Z,7.07
2018-05-25T18:43:00.857Z,8.77
2018-05-25T18:45:26.629Z,6.90
2018-05-25T18:47:52.447Z,7.83
2018-05-25T18:50:18.217Z,7.50
2018-05-25T18:52:43.970Z,8.60
2018-05-25T18:55:09.739Z,7.43
2018-05-25T18:57:35.498Z,7.40
2018-05-25T19:00:01.269Z,7.90
2018-05-25T19:02:27.049Z,7.17
2018-05-25T19:04:52.827Z,8.37
2018-05-25T19:07:18.577Z,6.93
2018-05-25T19:09:44.350Z,7.60
2018-05-25T19:12:10.129Z,7.20
2018-05-25T19:14:35.886Z,7.33
2018-05-25T19:17:01.645Z,7.33
2018-05-25T19:19:27.418Z,7.47
2018-05-25T19:21:53.182Z,7.70
2018-05-25T19:24:18.946Z,8.80
2018-05-25T19:26:44.719Z,7.70
2018-05-25T19:29:10.473Z,7.60
2018-05-25T19:31:36.225Z,9.00
2018-05-25T19:34:01.977Z,8.93
2018-05-25T19:36:27.753Z,8.73
2018-05-25T19:38:53.506Z,10.27
2018-05-25T19:41:19.261Z,8.63
2018-05-25T19:43:45.042Z,8.53
2018-05-25T19:46:10.794Z,8.97
2018-05-25T19:48:36.565Z,9.90
2018-05-25T19:51:02.344Z,9.17
2018-05-25T19:53:28.131Z,10.77
2018-05-25T19:55:53.902Z,10.57
2018-05-25T19:58:19.692Z,9.67
2018-05-25T20:00:45.465Z,10.13
2018-05-25T20:03:11.233Z,10.03
2018-05-25T20:05:37.041Z,9.43
2018-05-25T20:08:02.798Z,12.87
2018-05-25T20:10:28.559Z,10.40
2018-05-25T20:12:54.313Z,10.77
2018-05-25T20:15:20.061Z,10.90
2018-05-25T20:17:45.823Z,10.80
2018-05-25T20:20:11.582Z,10.10
2018-05-25T20:22:37.359Z,10.33
2018-05-25T20:25:03.138Z,10.40
2018-05-25T20:27:28.914Z,10.37
2018-05-25T20:29:54.682Z,10.63
2018-05-25T20:32:20.433Z,11.53
2018-05-25T20:34:46.192Z,10.87
2018-05-25T20:37:11.940Z,11.60
2018-05-25T20:39:37.702Z,10.00
2018-05-25T20:42:03.471Z,10.73
2018-05-25T20:44:29.228Z,10.50
2018-05-25T20:46:54.974Z,11.93
2018-05-25T20:49:20.737Z,12.67
2018-05-25T20:51:46.489Z,11.93
2018-05-25T20:54:12.245Z,10.77
2018-05-25T20:56:38.006Z,11.83
2018-05-25T20:59:03.778Z,11.70
2018-05-25T21:01:29.531Z,12.10
2018-05-25T21:03:55.326Z,12.80
2018-05-25T21:06:21.081Z,13.10
2018-05-25T21:08:46.857Z,12.70
2018-05-25T21:11:12.617Z,12.43
2018-05-25T21:13:38.385Z,13.83
2018-05-25T21:16:04.142Z,14.10
2018-05-25T21:18:29.902Z,12.60
2018-05-25T21:20:55.679Z,11.80
2018-05-25T21:23:21.451Z,13.87
2018-05-25T21:25:47.209Z,13.30
2018-05-25T21:28:12.975Z,13.70
2018-05-25T21:30:38.736Z,13.47
2018-05-25T21:33:04.497Z,11.60
2018-05-25T21:35:30.253Z,11.90
2018-05-25T21:37:56.013Z,12.10
2018-05-25T21:40:21.784Z,13.07
2018-05-25T21:42:47.638Z,11.83
2018-05-25T21:45:13.328Z,16.47
2018-05-25T21:47:39.078Z,12.07
2018-05-25T21:50:04.847Z,13.67
2018-05-25T21:52:30.593Z,13.03
2018-05-25T21:54:56.357Z,14.30
2018-05-25T21:57:22.106Z,13.23
2018-05-25T21:59:47.854Z,14.17
2018-05-25T22:02:13.618Z,14.73
2018-05-25T22:04:39.369Z,13.43
2018-05-25T22:07:05.133Z,15.63
2018-05-25T22:09:30.890Z,15.53
2018-05-25T22:11:56.711Z,15.73
2018-05-25T22:14:22.425Z,14.77
2018-05-25T22:16:48.206Z,14.13
2018-05-25T22:19:13.961Z,14.77
2018-05-25T22:21:39.726Z,14.13
2018-05-25T22:24:05.481Z,12.90
2018-05-25T22:26:31.239Z,15.83
2018-05-25T22:28:56.994Z,15.00
2018-05-25T22:31:22.760Z,15.07
2018-05-25T22:33:48.512Z,14.10
2018-05-25T22:36:14.292Z,15.90
2018-05-25T22:38:40.047Z,15.10
2018-05-25T22:41:05.809Z,15.87
2018-05-25T22:43:43.965Z,16.57
2018-05-25T22:46:22.239Z,19.07
2018-05-25T22:49:00.529Z,17.90
2018-05-25T22:51:38.630Z,18.70
2018-05-25T22:54:10.374Z,17.13
2018-05-25T22:56:36.153Z,17.43
2018-05-25T22:59:01.921Z,16.67
2018-05-25T23:01:27.684Z,16.80
2018-05-25T23:03:53.432Z,15.27
2018-05-25T23:06:19.189Z,15.17
2018-05-25T23:08:44.945Z,16.27
2018-05-25T23:11:10.697Z,17.00
2018-05-25T23:13:36.459Z,15.30
2018-05-25T23:16:02.218Z,15.30
2018-05-25T23:18:28.014Z,16.20
2018-05-25T23:20:53.757Z,15.83
2018-05-25T23:23:19.518Z,16.07
2018-05-25T23:25:45.264Z,15.80
2018-05-25T23:28:11.033Z,14.37
2018-05-25T23:30:36.802Z,17.10
2018-05-25T23:33:02.565Z,15.17
2018-05-25T23:35:28.324Z,16.30
2018-05-25T23:37:54.084Z,14.37
2018-05-25T23:40:19.842Z,15.60
2018-05-25T23:42:45.597Z,14.70
2018-05-25T23:45:11.350Z,14.77
2018-05-25T23:47:37.123Z,14.37
2018-05-25T23:50:02.877Z,15.70
2018-05-25T23:52:28.638Z,17.07
2018-05-25T23:54:54.406Z,16.63
2018-05-25T23:57:20.153Z,16.00
2018-05-25T23:59:45.913Z,15.90
